createdAt,value
2023-01-28T00:01:33.059Z,25.90
2023-01-28T00:04:02.983Z,26.27
2023-01-28T00:06:34.415Z,26.04
2023-01-28T00:09:04.624Z,26.23
2023-01-28T00:11:34.911Z,26.37
2023-01-28T00:14:05.906Z,26.16
2023-01-28T00:16:36.069Z,26.20
2023-01-28T00:19:05.829Z,26.17
2023-01-28T00:21:37.730Z,25.93
2023-01-28T00:24:09.956Z,26.30
2023-01-28T00:26:40.343Z,25.86
2023-01-28T00:29:10.679Z,25.98
2023-01-28T00:31:41.331Z,26.15
2023-01-28T00:34:12.285Z,26.12
2023-01-28T00:36:44.993Z,26.12
2023-01-28T00:39:17.665Z,26.23
2023-01-28T00:41:47.781Z,26.24
2023-01-28T00:44:17.548Z,26.27
2023-01-28T00:46:47.954Z,26.27
2023-01-28T00:49:18.379Z,26.25
2023-01-28T00:51:51.288Z,26.30
2023-01-28T00:54:22.302Z,26.40
2023-01-28T00:56:54.016Z,26.63
2023-01-28T00:59:24.478Z,26.41
2023-01-28T01:01:54.685Z,26.31
2023-01-28T01:04:35.733Z,26.32
2023-01-28T01:07:07.737Z,26.35
2023-01-28T01:09:38.105Z,26.57
2023-01-28T01:12:09.288Z,26.49
2023-01-28T01:14:39.516Z,26.40
2023-01-28T01:17:09.856Z,26.21
2023-01-28T01:19:40.868Z,26.37
2023-01-28T01:22:12.997Z,26.13
2023-01-28T01:24:43.449Z,26.26
2023-01-28T01:27:13.397Z,26.37
2023-01-28T01:29:43.186Z,26.71
2023-01-28T01:32:13.306Z,26.33
2023-01-28T01:34:43.655Z,26.53
2023-01-28T01:37:18.168Z,26.41
2023-01-28T01:39:48.066Z,26.59
2023-01-28T01:42:18.806Z,26.51
2023-01-28T01:45:03.332Z,26.57
2023-01-28T01:47:44.189Z,26.75
2023-01-28T01:50:25.015Z,26.38
2023-01-28T01:53:03.240Z,26.64
2023-01-28T01:55:39.369Z,26.78
2023-01-28T01:58:14.123Z,26.62
2023-01-28T02:00:45.457Z,26.57
2023-01-28T02:03:16.436Z,26.40
2023-01-28T02:05:47.034Z,26.61
2023-01-28T02:08:26.016Z,26.52
2023-01-28T02:11:03.550Z,26.74
2023-01-28T02:13:42.427Z,26.70
2023-01-28T02:16:13.993Z,26.68
2023-01-28T02:18:44.597Z,26.86
2023-01-28T02:22:08.255Z,26.51
2023-01-28T02:25:36.331Z,26.50
2023-01-28T02:28:38.347Z,26.61
2023-01-28T02:31:18.508Z,26.49
2023-01-28T02:34:01.632Z,26.79
2023-01-28T02:36:41.918Z,26.54
2023-01-28T02:39:18.199Z,26.39
2023-01-28T02:41:56.103Z,26.63
2023-01-28T02:44:29.057Z,26.73
2023-01-28T02:47:16.085Z,26.83
2023-01-28T02:49:51.394Z,26.46
2023-01-28T02:53:13.744Z,26.42
2023-01-28T02:55:55.662Z,26.35
2023-01-28T02:58:39.802Z,26.76
2023-01-28T03:01:24.577Z,26.79
2023-01-28T03:04:05.752Z,26.59
2023-01-28T03:06:42.322Z,26.82
2023-01-28T03:09:27.428Z,26.74
2023-01-28T03:12:18.694Z,26.49
2023-01-28T03:15:10.403Z,26.83
2023-01-28T03:18:05.074Z,26.69
2023-01-28T03:21:01.260Z,26.79
2023-01-28T03:23:57.193Z,26.82
2023-01-28T03:26:50.342Z,26.70
2023-01-28T03:29:42.066Z,26.86
2023-01-28T03:32:31.462Z,26.89
2023-01-28T03:35:20.425Z,26.83
2023-01-28T03:37:51.021Z,26.81
2023-01-28T03:40:22.087Z,26.85
2023-01-28T03:42:52.737Z,26.66
2023-01-28T03:45:21.998Z,27.06
2023-01-28T03:47:52.112Z,26.69
2023-01-28T03:50:25.909Z,26.62
2023-01-28T03:53:15.922Z,26.70
2023-01-28T03:55:48.236Z,26.78
2023-01-28T03:58:19.281Z,26.79
2023-01-28T04:00:49.848Z,26.89
2023-01-28T04:03:23.213Z,26.61
2023-01-28T04:06:05.348Z,26.88
2023-01-28T04:08:35.841Z,26.64
2023-01-28T04:11:16.084Z,26.87
2023-01-28T04:13:46.873Z,26.62
2023-01-28T04:16:19.497Z,26.94
2023-01-28T04:18:49.847Z,27.10
2023-01-28T04:21:22.402Z,27.02
2023-01-28T04:23:52.848Z,27.20
2023-01-28T04:26:22.978Z,26.97
2023-01-28T04:28:53.290Z,27.03
2023-01-28T04:31:24.581Z,27.04
2023-01-28T04:33:54.704Z,26.83
2023-01-28T04:36:28.014Z,26.92
2023-01-28T04:38:58.092Z,26.87
2023-01-28T04:41:28.065Z,27.24
2023-01-28T04:43:58.373Z,27.31
2023-01-28T04:46:28.547Z,27.14
2023-01-28T04:48:58.396Z,27.19
2023-01-28T04:51:30.001Z,27.16
2023-01-28T04:54:00.266Z,27.23
2023-01-28T04:56:30.466Z,27.56
2023-01-28T04:59:00.689Z,27.31
2023-01-28T05:01:31.264Z,27.03
2023-01-28T05:04:05.886Z,27.40
2023-01-28T05:06:37.466Z,27.04
2023-01-28T05:09:07.806Z,27.48
2023-01-28T05:11:39.257Z,27.36
2023-01-28T05:14:09.727Z,27.53
2023-01-28T05:16:39.360Z,27.64
2023-01-28T05:19:08.932Z,27.42
2023-01-28T05:21:40.621Z,27.80
2023-01-28T05:24:10.840Z,27.45
2023-01-28T05:26:41.355Z,27.21
2023-01-28T05:29:12.132Z,27.78
2023-01-28T05:31:42.318Z,27.64
2023-01-28T05:34:11.975Z,27.44
2023-01-28T05:36:44.033Z,27.86
2023-01-28T05:39:14.336Z,28.04
2023-01-28T05:41:44.776Z,27.80
2023-01-28T05:44:14.521Z,27.86
2023-01-28T05:46:47.072Z,27.93
2023-01-28T05:49:17.625Z,27.84
2023-01-28T05:51:50.296Z,28.22
2023-01-28T05:54:20.389Z,28.14
2023-01-28T05:56:50.486Z,28.19
2023-01-28T05:59:20.861Z,28.50
2023-01-28T06:01:51.283Z,28.21
2023-01-28T06:04:21.328Z,28.29
2023-01-28T06:06:53.170Z,28.24
2023-01-28T06:09:23.449Z,28.49
2023-01-28T06:11:53.853Z,28.37
2023-01-28T06:14:23.683Z,28.45
2023-01-28T06:16:54.330Z,28.58
2023-01-28T06:19:24.257Z,28.70
2023-01-28T06:21:56.079Z,28.68
2023-01-28T06:24:26.045Z,28.75
2023-01-28T06:26:56.447Z,28.77
2023-01-28T06:29:26.901Z,28.67
2023-01-28T06:31:57.071Z,28.46
2023-01-28T06:34:27.396Z,28.47
2023-01-28T06:36:59.140Z,28.63
2023-01-28T06:39:32.160Z,28.49
2023-01-28T06:42:02.964Z,28.66
2023-01-28T06:44:33.234Z,28.59
2023-01-28T06:47:03.278Z,28.50
2023-01-28T06:49:34.394Z,28.56
2023-01-28T06:52:07.194Z,28.62
2023-01-28T06:54:37.753Z,28.55
2023-01-28T06:57:07.893Z,28.68
2023-01-28T06:59:38.432Z,28.53
2023-01-28T07:02:08.332Z,28.69
2023-01-28T07:04:38.637Z,28.78
2023-01-28T07:07:10.809Z,28.89
2023-01-28T07:09:41.326Z,28.81
2023-01-28T07:12:11.436Z,29.00
2023-01-28T07:14:41.755Z,29.16
2023-01-28T07:17:11.807Z,29.06
2023-01-28T07:19:41.986Z,29.25
2023-01-28T07:22:13.869Z,29.63
2023-01-28T07:24:43.915Z,29.85
2023-01-28T07:27:14.328Z,29.71
2023-01-28T07:29:44.685Z,30.10
2023-01-28T07:32:14.923Z,30.36
2023-01-28T07:34:45.184Z,30.57
2023-01-28T07:37:17.927Z,30.76
2023-01-28T07:39:49.082Z,30.92
2023-01-28T07:42:19.105Z,31.03
2023-01-28T07:44:50.134Z,31.07
2023-01-28T07:47:20.477Z,31.07
2023-01-28T07:49:50.808Z,31.20
2023-01-28T07:52:22.409Z,31.21
2023-01-28T07:54:52.163Z,31.48
2023-01-28T07:57:23.778Z,31.03
2023-01-28T07:59:54.338Z,31.54
2023-01-28T08:02:25.128Z,31.34
2023-01-28T08:04:55.603Z,31.31
2023-01-28T08:07:27.804Z,31.36
2023-01-28T08:09:58.197Z,31.34
2023-01-28T08:12:28.093Z,31.13
2023-01-28T08:14:58.503Z,31.17
2023-01-28T08:17:29.024Z,31.02
2023-01-28T08:19:59.264Z,31.25
2023-01-28T08:22:31.869Z,31.28
2023-01-28T08:25:01.593Z,31.36
2023-01-28T08:27:32.116Z,31.20
2023-01-28T08:30:02.399Z,31.42
2023-01-28T08:32:33.045Z,31.00
2023-01-28T08:35:03.395Z,30.92
2023-01-28T08:37:35.482Z,31.03
2023-01-28T08:40:05.976Z,31.17
2023-01-28T08:42:36.422Z,30.96
2023-01-28T08:45:07.321Z,30.81
2023-01-28T08:47:38.157Z,30.54
2023-01-28T08:50:09.679Z,30.81
2023-01-28T08:52:44.597Z,30.74
2023-01-28T08:55:14.982Z,30.72
2023-01-28T08:57:45.382Z,30.53
2023-01-28T09:00:16.990Z,29.99
2023-01-28T09:02:47.709Z,30.08
2023-01-28T09:05:18.082Z,29.69
2023-01-28T09:07:51.316Z,29.83
2023-01-28T09:10:22.742Z,29.76
2023-01-28T09:12:53.171Z,30.01
2023-01-28T09:15:22.954Z,29.94
2023-01-28T09:17:59.172Z,29.63
2023-01-28T09:20:30.134Z,29.94
2023-01-28T09:23:02.911Z,29.44
2023-01-28T09:25:33.082Z,29.69
2023-01-28T09:28:03.278Z,29.33
2023-01-28T09:30:35.953Z,29.48
2023-01-28T09:33:06.915Z,29.82
2023-01-28T09:35:37.469Z,29.70
2023-01-28T09:38:09.250Z,29.55
2023-01-28T09:40:42.969Z,29.61
2023-01-28T09:43:38.904Z,29.39
2023-01-28T09:46:14.697Z,29.79
2023-01-28T09:48:49.054Z,29.81
2023-01-28T09:51:38.937Z,29.97
2023-01-28T09:54:29.257Z,29.80
2023-01-28T09:57:08.584Z,29.40
2023-01-28T09:59:39.809Z,29.60
2023-01-28T10:02:45.238Z,29.63
2023-01-28T10:05:29.154Z,29.88
2023-01-28T10:08:17.600Z,29.75
2023-01-28T10:10:58.599Z,29.91
2023-01-28T10:13:43.291Z,29.65
2023-01-28T10:16:25.574Z,29.45
2023-01-28T10:19:03.685Z,29.72
2023-01-28T10:21:43.185Z,29.39
2023-01-28T10:24:21.000Z,29.64
2023-01-28T10:26:54.504Z,29.74
2023-01-28T10:29:30.186Z,29.47
2023-01-28T10:32:08.330Z,29.33
2023-01-28T10:34:39.661Z,29.56
2023-01-28T10:37:10.959Z,29.41
2023-01-28T10:39:41.369Z,29.33
2023-01-28T10:42:29.573Z,29.45
2023-01-28T10:45:04.283Z,29.49
2023-01-28T10:47:43.521Z,29.59
2023-01-28T10:50:23.047Z,29.51
2023-01-28T10:52:58.833Z,29.70
2023-01-28T10:55:37.030Z,29.80
2023-01-28T10:58:20.663Z,29.75
2023-01-28T11:00:57.099Z,29.82
2023-01-28T11:03:29.709Z,29.74
2023-01-28T11:06:01.889Z,29.69
2023-01-28T11:08:46.403Z,29.57
2023-01-28T11:11:17.810Z,29.64
2023-01-28T11:13:58.776Z,29.96
2023-01-28T11:16:29.029Z,29.87
2023-01-28T11:19:07.620Z,29.65
2023-01-28T11:21:38.013Z,29.65
2023-01-28T11:24:20.307Z,29.83
2023-01-28T11:26:55.765Z,29.99
2023-01-28T11:29:33.304Z,29.67
2023-01-28T11:32:03.650Z,29.79
2023-01-28T11:34:37.639Z,29.36
2023-01-28T11:37:17.324Z,29.74
2023-01-28T11:39:47.343Z,29.68
2023-01-28T11:42:22.991Z,29.68
2023-01-28T11:44:56.414Z,29.49
2023-01-28T11:47:48.992Z,29.79
2023-01-28T11:50:36.115Z,30.14
2023-01-28T11:53:46.091Z,29.95
2023-01-28T11:56:56.658Z,30.06
2023-01-28T12:00:01.562Z,30.11
2023-01-28T12:02:54.089Z,29.97
2023-01-28T12:05:52.304Z,30.01
2023-01-28T12:08:28.781Z,30.04
2023-01-28T12:11:21.528Z,30.27
2023-01-28T12:14:10.890Z,30.28
2023-01-28T12:17:08.963Z,30.73
2023-01-28T12:20:16.020Z,30.33
2023-01-28T12:23:11.203Z,30.44
2023-01-28T12:26:16.796Z,30.66
2023-01-28T12:29:14.635Z,30.78
2023-01-28T12:32:04.335Z,30.95
2023-01-28T12:35:04.820Z,30.93
2023-01-28T12:37:56.090Z,30.94
2023-01-28T12:40:57.384Z,31.16
2023-01-28T12:43:53.715Z,31.19
2023-01-28T12:46:44.172Z,31.48
2023-01-28T12:49:23.716Z,31.81
2023-01-28T12:52:06.236Z,31.76
2023-01-28T12:54:44.475Z,31.86
2023-01-28T12:57:25.069Z,32.00
2023-01-28T13:00:05.420Z,32.21
2023-01-28T13:02:44.449Z,32.53
2023-01-28T13:05:19.663Z,32.55
2023-01-28T13:07:59.364Z,32.70
2023-01-28T13:10:36.895Z,33.00
2023-01-28T13:13:09.324Z,32.92
2023-01-28T13:15:45.606Z,33.11
2023-01-28T13:18:47.063Z,33.16
2023-01-28T13:21:34.684Z,33.39
2023-01-28T13:24:35.086Z,33.46
2023-01-28T13:27:23.948Z,33.51
2023-01-28T13:30:07.906Z,33.61
2023-01-28T13:32:39.105Z,33.78
2023-01-28T13:35:32.258Z,33.48
2023-01-28T13:38:10.294Z,33.89
2023-01-28T13:40:44.253Z,33.90
2023-01-28T13:43:39.899Z,33.81
2023-01-28T13:46:13.480Z,34.03
2023-01-28T13:48:49.832Z,34.07
2023-01-28T13:51:25.096Z,33.96
2023-01-28T13:54:04.488Z,33.76
2023-01-28T13:56:51.561Z,34.14
2023-01-28T13:59:41.884Z,34.00
2023-01-28T14:02:46.635Z,34.06
2023-01-28T14:05:53.077Z,34.12
2023-01-28T14:09:12.404Z,34.08
2023-01-28T14:12:39.137Z,34.51
2023-01-28T14:15:52.145Z,34.76
2023-01-28T14:18:29.858Z,34.85
2023-01-28T14:21:05.662Z,35.16
2023-01-28T14:23:39.098Z,35.15
2023-01-28T14:26:25.801Z,35.34
2023-01-28T14:29:20.521Z,35.79
2023-01-28T14:31:51.122Z,35.70
2023-01-28T14:34:29.880Z,35.85
2023-01-28T14:37:06.735Z,35.71
2023-01-28T14:39:47.606Z,35.92
2023-01-28T14:42:27.042Z,36.01
2023-01-28T14:45:21.215Z,35.88
2023-01-28T14:48:22.153Z,35.99
2023-01-28T14:51:42.824Z,36.05
2023-01-28T14:54:48.791Z,35.87
2023-01-28T14:57:47.914Z,36.40
2023-01-28T15:00:26.878Z,36.31
2023-01-28T15:02:57.283Z,36.36
2023-01-28T15:05:30.433Z,36.47
2023-01-28T15:08:01.121Z,36.35
2023-01-28T15:10:37.517Z,36.45
2023-01-28T15:13:13.207Z,36.53
2023-01-28T15:15:52.108Z,36.55
2023-01-28T15:18:32.569Z,36.55
2023-01-28T15:21:04.578Z,36.61
2023-01-28T15:23:38.751Z,36.84
2023-01-28T15:26:14.456Z,36.71
2023-01-28T15:28:48.978Z,36.92
2023-01-28T15:31:39.297Z,36.81
2023-01-28T15:34:18.567Z,36.87
2023-01-28T15:36:50.502Z,36.93
2023-01-28T15:39:23.660Z,37.13
2023-01-28T15:42:00.134Z,37.17
2023-01-28T15:44:36.667Z,36.87
2023-01-28T15:47:20.457Z,37.25
2023-01-28T15:49:56.575Z,37.27
2023-01-28T15:52:38.277Z,37.44
2023-01-28T15:55:10.738Z,37.46
2023-01-28T15:57:41.037Z,37.40
2023-01-28T16:00:22.395Z,37.34
2023-01-28T16:02:56.108Z,37.34
2023-01-28T16:05:36.878Z,37.67
2023-01-28T16:08:14.539Z,37.59
2023-01-28T16:10:50.496Z,37.37
2023-01-28T16:13:26.742Z,37.68
2023-01-28T16:16:00.078Z,37.70
2023-01-28T16:18:42.674Z,37.68
2023-01-28T16:21:15.674Z,38.12
2023-01-28T16:23:55.065Z,37.92
2023-01-28T16:26:28.782Z,37.97
2023-01-28T16:28:59.606Z,37.78
2023-01-28T16:31:29.784Z,38.13
2023-01-28T16:34:02.019Z,38.18
2023-01-28T16:36:31.786Z,37.94
2023-01-28T16:39:02.179Z,38.19
2023-01-28T16:41:41.150Z,38.47
2023-01-28T16:44:15.041Z,38.45
2023-01-28T16:46:45.978Z,38.28
2023-01-28T16:49:18.049Z,38.14
2023-01-28T16:51:48.274Z,38.33
2023-01-28T16:54:19.823Z,38.57
2023-01-28T16:56:49.974Z,38.32
2023-01-28T16:59:19.955Z,38.41
2023-01-28T17:01:50.742Z,38.53
2023-01-28T17:04:22.085Z,38.56
2023-01-28T17:06:53.253Z,38.33
2023-01-28T17:09:24.021Z,38.61
2023-01-28T17:11:54.335Z,38.50
2023-01-28T17:14:24.473Z,38.73
2023-01-28T17:16:55.886Z,38.74
2023-01-28T17:19:28.755Z,38.56
2023-01-28T17:22:00.106Z,39.17
2023-01-28T17:24:32.375Z,38.67
2023-01-28T17:27:02.435Z,38.94
2023-01-28T17:29:32.381Z,38.76
2023-01-28T17:32:02.615Z,38.91
2023-01-28T17:34:34.741Z,38.95
2023-01-28T17:37:04.459Z,39.28
2023-01-28T17:39:34.791Z,38.80
2023-01-28T17:42:05.102Z,39.17
2023-01-28T17:44:35.561Z,39.20
2023-01-28T17:47:05.899Z,39.11
2023-01-28T17:49:38.998Z,39.17
2023-01-28T17:52:08.849Z,39.28
2023-01-28T17:54:39.773Z,39.33
2023-01-28T17:57:10.157Z,39.10
2023-01-28T17:59:40.702Z,39.49
2023-01-28T18:02:14.003Z,39.37
2023-01-28T18:04:49.017Z,39.67
2023-01-28T18:07:18.915Z,39.48
2023-01-28T18:09:49.131Z,39.24
2023-01-28T18:12:19.989Z,39.37
2023-01-28T18:14:50.473Z,39.35
2023-01-28T18:17:20.326Z,39.49
2023-01-28T18:19:52.339Z,39.50
2023-01-28T18:22:22.703Z,39.53
2023-01-28T18:24:53.311Z,39.65
2023-01-28T18:27:23.650Z,39.72
2023-01-28T18:29:54.127Z,39.78
2023-01-28T18:32:24.788Z,39.47
2023-01-28T18:34:56.543Z,39.95
2023-01-28T18:37:26.896Z,39.50
2023-01-28T18:39:57.367Z,39.86
2023-01-28T18:42:27.895Z,39.63
2023-01-28T18:44:57.711Z,39.72
2023-01-28T18:47:28.299Z,39.90
2023-01-28T18:50:00.195Z,40.03
2023-01-28T18:52:30.238Z,39.60
2023-01-28T18:55:00.152Z,39.70
2023-01-28T18:57:30.421Z,39.88
2023-01-28T19:00:00.524Z,40.05
2023-01-28T19:02:30.196Z,39.93
2023-01-28T19:05:02.673Z,40.02
2023-01-28T19:07:33.657Z,40.00
2023-01-28T19:10:04.139Z,39.91
2023-01-28T19:12:34.449Z,39.95
2023-01-28T19:15:04.740Z,40.06
2023-01-28T19:17:35.613Z,40.09
2023-01-28T19:20:08.998Z,40.21
2023-01-28T19:22:41.268Z,40.13
2023-01-28T19:25:12.601Z,40.05
2023-01-28T19:27:43.084Z,40.04
2023-01-28T19:30:14.630Z,40.11
2023-01-28T19:32:44.905Z,40.12
2023-01-28T19:35:17.499Z,40.29
2023-01-28T19:37:48.495Z,40.21
2023-01-28T19:40:21.753Z,40.28
2023-01-28T19:42:55.806Z,40.40
2023-01-28T19:45:26.101Z,40.26
2023-01-28T19:47:56.461Z,40.43
2023-01-28T19:50:28.348Z,40.45
2023-01-28T19:52:58.009Z,40.58
2023-01-28T19:55:27.680Z,40.42
2023-01-28T19:57:57.433Z,40.30
2023-01-28T20:00:27.739Z,40.39
2023-01-28T20:02:58.000Z,40.46
2023-01-28T20:05:30.391Z,40.50
2023-01-28T20:08:00.336Z,40.49
2023-01-28T20:10:35.254Z,40.63
2023-01-28T20:13:07.515Z,40.89
2023-01-28T20:15:42.253Z,40.47
2023-01-28T20:18:12.428Z,40.48
2023-01-28T20:20:45.224Z,40.63
2023-01-28T20:23:15.503Z,40.78
2023-01-28T20:25:46.446Z,40.77
2023-01-28T20:28:16.792Z,41.15
2023-01-28T20:30:47.230Z,40.85
2023-01-28T20:33:17.851Z,40.84
2023-01-28T20:35:51.493Z,40.84
2023-01-28T20:38:21.387Z,40.83
2023-01-28T20:40:51.968Z,40.72
2023-01-28T20:43:22.243Z,41.06
2023-01-28T20:45:52.868Z,40.98
2023-01-28T20:48:23.381Z,40.83
2023-01-28T20:50:55.783Z,41.35
2023-01-28T20:53:26.057Z,41.09
2023-01-28T20:55:59.405Z,41.02
2023-01-28T20:58:29.999Z,41.19
2023-01-28T21:01:00.461Z,41.34
2023-01-28T21:03:30.952Z,40.85
2023-01-28T21:06:04.280Z,41.14
2023-01-28T21:08:35.033Z,41.21
2023-01-28T21:11:06.823Z,40.96
2023-01-28T21:13:37.486Z,41.13
2023-01-28T21:16:08.887Z,41.08
2023-01-28T21:18:39.095Z,41.37
2023-01-28T21:21:15.762Z,40.98
2023-01-28T21:23:46.198Z,41.24
2023-01-28T21:26:17.654Z,41.24
2023-01-28T21:28:48.819Z,41.58
2023-01-28T21:31:21.338Z,41.27
2023-01-28T21:33:53.105Z,41.10
2023-01-28T21:36:27.863Z,41.44
2023-01-28T21:39:00.611Z,41.21
2023-01-28T21:41:31.231Z,41.46
2023-01-28T21:44:01.652Z,41.46
2023-01-28T21:46:35.187Z,41.15
2023-01-28T21:49:07.173Z,41.49
2023-01-28T21:51:40.421Z,41.69
2023-01-28T21:54:14.943Z,41.24
2023-01-28T21:56:47.204Z,41.40
2023-01-28T21:59:28.719Z,41.67
2023-01-28T22:02:00.357Z,41.64
2023-01-28T22:04:34.796Z,41.22
2023-01-28T22:07:10.952Z,41.56
2023-01-28T22:09:42.849Z,41.68
2023-01-28T22:12:16.364Z,41.38
2023-01-28T22:14:48.456Z,41.27
2023-01-28T22:17:19.689Z,41.59
2023-01-28T22:19:50.097Z,41.43
2023-01-28T22:22:22.445Z,41.24
2023-01-28T22:24:52.892Z,41.51
2023-01-28T22:27:23.020Z,41.42
2023-01-28T22:29:54.138Z,41.36
2023-01-28T22:32:24.382Z,41.27
2023-01-28T22:34:54.600Z,41.24
2023-01-28T22:37:26.085Z,41.31
2023-01-28T22:39:56.301Z,41.43
2023-01-28T22:42:26.407Z,41.17
2023-01-28T22:44:56.646Z,41.26
2023-01-28T22:47:26.991Z,41.56
2023-01-28T22:49:57.453Z,41.47
2023-01-28T22:52:29.261Z,41.64
2023-01-28T22:54:59.677Z,41.50
2023-01-28T22:57:30.377Z,41.41
2023-01-28T23:00:01.020Z,41.38
2023-01-28T23:02:30.998Z,41.38
2023-01-28T23:05:01.414Z,41.40
2023-01-28T23:07:33.837Z,41.45
2023-01-28T23:10:04.095Z,41.50
2023-01-28T23:12:34.590Z,41.58
2023-01-28T23:15:21.590Z,41.18
2023-01-28T23:18:05.167Z,41.10
2023-01-28T23:20:54.425Z,41.51
2023-01-28T23:23:43.601Z,41.63
2023-01-28T23:26:13.860Z,41.40
2023-01-28T23:28:44.273Z,41.58
2023-01-28T23:31:14.893Z,41.77
2023-01-28T23:33:44.785Z,41.58
2023-01-28T23:36:14.819Z,41.63
2023-01-28T23:38:47.080Z,41.34
2023-01-28T23:41:17.671Z,41.50
2023-01-28T23:43:48.066Z,41.52
2023-01-28T23:46:22.713Z,41.66
2023-01-28T23:48:58.379Z,41.61
2023-01-28T23:51:28.670Z,41.75
2023-01-28T23:54:01.068Z,41.83
2023-01-28T23:56:31.576Z,41.42
2023-01-28T23:59:02.958Z,41.80
